createdAt,value
2022-10-12T00:00:50.491Z,6.74
2022-10-12T00:03:19.172Z,6.67
2022-10-12T00:05:47.011Z,6.66
2022-10-12T00:08:14.415Z,6.65
2022-10-12T00:10:44.858Z,6.59
2022-10-12T00:13:12.103Z,6.50
2022-10-12T00:15:42.249Z,6.49
2022-10-12T00:18:09.253Z,6.50
2022-10-12T00:20:36.585Z,6.47
2022-10-12T00:23:03.614Z,6.47
2022-10-12T00:25:30.916Z,6.48
2022-10-12T00:27:57.836Z,6.47
2022-10-12T00:30:24.809Z,6.39
2022-10-12T00:32:51.818Z,6.32
2022-10-12T00:35:18.786Z,6.27
2022-10-12T00:37:45.736Z,6.29
2022-10-12T00:40:13.056Z,6.22
2022-10-12T00:42:40.493Z,6.32
2022-10-12T00:45:09.914Z,6.31
2022-10-12T00:47:41.549Z,6.34
2022-10-12T00:50:11.477Z,6.31
2022-10-12T00:52:47.101Z,6.34
2022-10-12T00:55:19.145Z,6.29
2022-10-12T00:57:49.730Z,6.28
2022-10-12T01:00:18.903Z,6.18
2022-10-12T01:02:49.290Z,6.13
2022-10-12T01:05:18.999Z,6.12
2022-10-12T01:07:46.251Z,6.09
2022-10-12T01:10:13.933Z,6.00
2022-10-12T01:12:44.108Z,6.10
2022-10-12T01:15:13.571Z,6.08
2022-10-12T01:18:04.923Z,6.05
2022-10-12T01:20:59.509Z,6.04
2022-10-12T01:24:00.401Z,5.98
2022-10-12T01:27:18.489Z,5.89
2022-10-12T01:30:25.896Z,5.82
2022-10-12T01:33:36.668Z,5.76
2022-10-12T01:36:33.718Z,5.68
2022-10-12T01:39:18.173Z,5.61
2022-10-12T01:41:50.457Z,5.69
2022-10-12T01:44:22.405Z,5.69
2022-10-12T01:46:50.290Z,5.71
2022-10-12T01:49:23.572Z,5.72
2022-10-12T01:51:59.851Z,5.73
2022-10-12T01:55:36.909Z,5.67
2022-10-12T01:58:33.681Z,5.64
2022-10-12T02:01:34.042Z,5.46
2022-10-12T02:04:03.736Z,5.61
2022-10-12T02:06:46.223Z,5.62
2022-10-12T02:09:28.160Z,5.50
2022-10-12T02:12:04.083Z,5.64
2022-10-12T02:15:04.194Z,5.52
2022-10-12T02:17:35.587Z,5.27
2022-10-12T02:20:04.262Z,5.31
2022-10-12T02:22:36.902Z,5.32
2022-10-12T02:25:11.143Z,5.31
2022-10-12T02:27:45.643Z,5.33
2022-10-12T02:30:13.396Z,5.15
2022-10-12T02:33:03.669Z,5.17
2022-10-12T02:35:52.469Z,5.08
2022-10-12T02:38:52.651Z,5.10
2022-10-12T02:41:36.483Z,5.12
2022-10-12T02:44:10.552Z,5.23
2022-10-12T02:46:41.334Z,5.15
2022-10-12T02:49:11.046Z,5.16
2022-10-12T02:51:41.073Z,5.10
2022-10-12T02:54:08.669Z,5.01
2022-10-12T02:56:42.001Z,4.96
2022-10-12T02:59:09.388Z,4.96
2022-10-12T03:01:36.883Z,5.01
2022-10-12T03:04:04.494Z,5.04
2022-10-12T03:06:31.873Z,4.94
2022-10-12T03:08:58.873Z,5.00
2022-10-12T03:11:25.824Z,5.06
2022-10-12T03:13:54.691Z,5.06
2022-10-12T03:16:22.766Z,5.07
2022-10-12T03:18:50.790Z,5.04
2022-10-12T03:21:18.014Z,5.01
2022-10-12T03:23:45.413Z,4.99
2022-10-12T03:26:12.482Z,5.00
2022-10-12T03:28:39.488Z,4.86
2022-10-12T03:31:06.507Z,4.92
2022-10-12T03:33:33.499Z,4.70
2022-10-12T03:36:00.478Z,4.92
2022-10-12T03:38:27.460Z,4.88
2022-10-12T03:40:54.501Z,4.82
2022-10-12T03:43:21.512Z,4.92
2022-10-12T03:45:48.499Z,4.91
2022-10-12T03:48:15.676Z,4.93
2022-10-12T03:50:42.690Z,4.94
2022-10-12T03:53:10.098Z,4.94
2022-10-12T03:55:37.057Z,4.89
2022-10-12T03:58:04.060Z,4.65
2022-10-12T04:00:31.257Z,4.64
2022-10-12T04:02:58.375Z,4.79
2022-10-12T04:05:25.487Z,4.78
2022-10-12T04:07:52.709Z,4.83
2022-10-12T04:10:20.307Z,4.73
2022-10-12T04:12:47.377Z,4.65
2022-10-12T04:15:14.777Z,4.79
2022-10-12T04:17:42.084Z,4.79
2022-10-12T04:20:11.643Z,4.81
2022-10-12T04:22:39.713Z,4.80
2022-10-12T04:25:07.163Z,4.78
2022-10-12T04:27:34.397Z,4.81
2022-10-12T04:30:01.364Z,4.65
2022-10-12T04:32:28.256Z,4.75
2022-10-12T04:34:55.195Z,4.70
2022-10-12T04:37:22.167Z,4.61
2022-10-12T04:39:49.112Z,4.47
2022-10-12T04:42:15.997Z,4.62
2022-10-12T04:44:43.025Z,4.11
2022-10-12T04:47:10.459Z,4.61
2022-10-12T04:49:37.840Z,4.61
2022-10-12T04:52:05.202Z,4.60
2022-10-12T04:54:32.872Z,4.55
2022-10-12T04:57:00.209Z,4.57
2022-10-12T04:59:27.797Z,4.55
2022-10-12T05:01:54.892Z,4.50
2022-10-12T05:04:21.918Z,4.31
2022-10-12T05:06:48.824Z,4.46
2022-10-12T05:09:17.172Z,4.50
2022-10-12T05:11:44.513Z,4.50
2022-10-12T05:14:11.797Z,4.41
2022-10-12T05:16:38.736Z,4.53
2022-10-12T05:19:05.695Z,4.52
2022-10-12T05:21:33.591Z,4.48
2022-10-12T05:24:00.510Z,4.45
2022-10-12T05:26:27.678Z,4.49
2022-10-12T05:28:54.848Z,4.50
2022-10-12T05:31:21.814Z,4.44
2022-10-12T05:33:48.794Z,4.33
2022-10-12T05:36:15.832Z,4.41
2022-10-12T05:38:42.805Z,4.44
2022-10-12T05:41:09.877Z,4.44
2022-10-12T05:43:36.802Z,4.50
2022-10-12T05:46:04.594Z,4.46
2022-10-12T05:48:33.159Z,4.51
2022-10-12T05:51:00.148Z,4.56
2022-10-12T05:53:27.715Z,4.55
2022-10-12T05:56:00.509Z,4.58
2022-10-12T05:58:30.627Z,4.58
2022-10-12T06:01:10.242Z,4.54
2022-10-12T06:03:37.549Z,4.40
2022-10-12T06:06:06.507Z,4.29
2022-10-12T06:08:35.004Z,4.44
2022-10-12T06:11:02.358Z,4.55
2022-10-12T06:13:29.351Z,4.57
2022-10-12T06:15:56.651Z,4.25
2022-10-12T06:18:23.674Z,4.22
2022-10-12T06:21:08.743Z,4.56
2022-10-12T06:23:40.964Z,4.45
2022-10-12T06:26:07.943Z,4.68
2022-10-12T06:28:35.101Z,4.68
2022-10-12T06:31:02.119Z,4.63
2022-10-12T06:33:29.251Z,4.64
2022-10-12T06:35:57.013Z,4.76
2022-10-12T06:38:25.108Z,4.93
2022-10-12T06:40:53.554Z,4.96
2022-10-12T06:43:22.815Z,5.07
2022-10-12T06:45:50.421Z,5.08
2022-10-12T06:48:18.748Z,5.03
2022-10-12T06:50:47.876Z,5.17
2022-10-12T06:53:14.878Z,5.06
2022-10-12T06:55:41.984Z,5.19
2022-10-12T06:58:09.057Z,5.10
2022-10-12T07:00:36.369Z,5.29
2022-10-12T07:03:03.702Z,5.38
2022-10-12T07:05:30.677Z,5.45
2022-10-12T07:07:58.018Z,5.52
2022-10-12T07:10:25.410Z,5.57
2022-10-12T07:12:52.345Z,5.64
2022-10-12T07:15:19.555Z,5.69
2022-10-12T07:17:46.500Z,5.76
2022-10-12T07:20:13.986Z,5.83
2022-10-12T07:22:40.880Z,5.96
2022-10-12T07:25:08.633Z,6.04
2022-10-12T07:27:35.772Z,6.10
2022-10-12T07:30:03.987Z,6.12
2022-10-12T07:32:30.900Z,6.29
2022-10-12T07:34:57.831Z,6.38
2022-10-12T07:37:25.087Z,6.47
2022-10-12T07:39:57.075Z,6.56
2022-10-12T07:42:25.392Z,6.72
2022-10-12T07:44:52.527Z,6.83
2022-10-12T07:47:19.655Z,6.93
2022-10-12T07:49:46.557Z,6.80
2022-10-12T07:52:13.555Z,6.95
2022-10-12T07:54:40.478Z,7.06
2022-10-12T07:57:08.460Z,6.90
2022-10-12T07:59:35.389Z,7.11
2022-10-12T08:02:02.388Z,7.22
2022-10-12T08:04:29.398Z,7.31
2022-10-12T08:06:57.939Z,7.45
2022-10-12T08:09:24.877Z,7.57
2022-10-12T08:11:51.784Z,7.71
2022-10-12T08:14:18.736Z,7.70
2022-10-12T08:16:45.780Z,7.83
2022-10-12T08:19:13.678Z,7.89
2022-10-12T08:21:42.570Z,7.94
2022-10-12T08:24:11.352Z,8.08
2022-10-12T08:26:39.047Z,8.20
2022-10-12T08:29:08.129Z,8.29
2022-10-12T08:31:35.951Z,8.41
2022-10-12T08:34:04.240Z,8.48
2022-10-12T08:36:31.259Z,8.56
2022-10-12T08:38:58.464Z,8.79
2022-10-12T08:42:12.798Z,8.85
2022-10-12T08:45:19.889Z,9.04
2022-10-12T08:48:14.388Z,9.16
2022-10-12T08:50:54.633Z,9.34
2022-10-12T08:53:37.728Z,9.44
2022-10-12T08:56:05.110Z,9.70
2022-10-12T08:58:36.847Z,9.62
2022-10-12T09:01:26.002Z,9.91
2022-10-12T09:04:21.142Z,10.14
2022-10-12T09:07:19.831Z,10.35
2022-10-12T09:10:20.932Z,10.57
2022-10-12T09:13:25.761Z,10.75
2022-10-12T09:15:55.219Z,11.11
2022-10-12T09:18:40.831Z,11.32
2022-10-12T09:21:17.307Z,11.88
2022-10-12T09:23:45.040Z,12.73
2022-10-12T09:26:19.677Z,13.84
2022-10-12T09:28:54.547Z,15.29
2022-10-12T09:32:04.678Z,17.12
2022-10-12T09:34:32.646Z,17.82
2022-10-12T09:37:03.417Z,18.48
2022-10-12T09:39:39.630Z,19.38
2022-10-12T09:42:06.924Z,19.77
2022-10-12T09:44:44.757Z,19.88
2022-10-12T09:47:28.291Z,20.51
2022-10-12T09:50:04.270Z,21.03
2022-10-12T09:52:44.806Z,21.99
2022-10-12T09:55:15.540Z,22.56
2022-10-12T09:57:54.467Z,22.68
2022-10-12T10:00:32.228Z,22.69
2022-10-12T10:03:01.227Z,23.01
2022-10-12T10:05:37.590Z,23.74
2022-10-12T10:08:24.282Z,24.37
2022-10-12T10:10:57.517Z,24.60
2022-10-12T10:13:31.693Z,24.92
2022-10-12T10:16:08.850Z,25.36
2022-10-12T10:18:49.249Z,25.79
2022-10-12T10:21:36.570Z,26.02
2022-10-12T10:24:21.713Z,26.59
2022-10-12T10:27:03.410Z,25.86
2022-10-12T10:29:37.851Z,25.71
2022-10-12T10:32:27.225Z,26.22
2022-10-12T10:35:13.218Z,25.13
2022-10-12T10:37:45.275Z,24.64
2022-10-12T10:40:32.210Z,24.30
2022-10-12T10:43:05.109Z,25.34
2022-10-12T10:48:24.640Z,26.27
2022-10-12T10:51:00.985Z,26.56
2022-10-12T10:53:42.066Z,26.85
2022-10-12T10:56:24.881Z,26.56
2022-10-12T10:59:15.576Z,26.58
2022-10-12T11:01:59.477Z,26.68
2022-10-12T11:04:45.701Z,26.95
2022-10-12T11:07:37.398Z,27.80
2022-10-12T11:10:30.501Z,28.08
2022-10-12T11:13:25.574Z,27.98
2022-10-12T11:16:11.602Z,27.45
2022-10-12T11:18:55.450Z,27.64
2022-10-12T11:21:39.493Z,28.16
2022-10-12T11:24:09.619Z,28.39
2022-10-12T11:26:51.232Z,27.54
2022-10-12T11:29:18.538Z,27.00
2022-10-12T11:32:07.725Z,27.02
2022-10-12T11:35:05.849Z,27.57
2022-10-12T11:37:47.550Z,27.53
2022-10-12T11:41:00.256Z,27.65
2022-10-12T11:43:26.706Z,27.63
2022-10-12T11:46:02.914Z,27.86
2022-10-12T11:48:52.741Z,27.67
2022-10-12T11:51:19.638Z,26.40
2022-10-12T11:54:18.755Z,25.20
2022-10-12T11:56:58.680Z,25.88
2022-10-12T11:59:44.214Z,26.79
2022-10-12T12:02:26.735Z,26.86
2022-10-12T12:04:54.747Z,25.01
2022-10-12T12:07:43.814Z,25.19
2022-10-12T12:10:44.271Z,25.72
2022-10-12T12:13:12.695Z,25.61
2022-10-12T12:16:03.813Z,24.39
2022-10-12T12:18:52.698Z,23.23
2022-10-12T12:21:20.139Z,22.36
2022-10-12T12:23:55.670Z,21.66
2022-10-12T12:26:28.067Z,21.11
2022-10-12T12:29:22.039Z,20.79
2022-10-12T12:31:59.120Z,20.39
2022-10-12T12:34:27.875Z,20.04
2022-10-12T12:36:56.457Z,19.40
2022-10-12T12:39:32.724Z,18.80
2022-10-12T12:42:09.192Z,18.62
2022-10-12T12:44:43.045Z,18.59
2022-10-12T12:50:02.462Z,18.63
2022-10-12T12:52:40.003Z,18.34
2022-10-12T12:55:50.673Z,18.22
2022-10-12T12:58:33.558Z,18.07
2022-10-12T13:01:36.745Z,18.00
2022-10-12T13:04:24.720Z,18.09
2022-10-12T13:07:00.516Z,18.14
2022-10-12T13:09:38.318Z,18.09
2022-10-12T13:12:32.399Z,18.24
2022-10-12T13:15:20.909Z,18.26
2022-10-12T13:18:48.834Z,18.21
2022-10-12T13:21:22.747Z,18.08
2022-10-12T13:24:11.823Z,18.04
2022-10-12T13:26:41.155Z,18.01
2022-10-12T13:29:20.120Z,18.12
2022-10-12T13:31:52.652Z,18.09
2022-10-12T13:34:26.841Z,18.08
2022-10-12T13:37:00.380Z,18.12
2022-10-12T13:39:28.769Z,18.07
2022-10-12T13:42:01.210Z,18.03
2022-10-12T13:44:36.452Z,18.06
2022-10-12T13:47:31.149Z,17.96
2022-10-12T13:49:58.861Z,17.77
2022-10-12T13:52:32.548Z,17.82
2022-10-12T13:55:01.115Z,17.88
2022-10-12T13:57:46.179Z,17.82
2022-10-12T14:00:18.628Z,17.84
2022-10-12T14:03:06.166Z,17.84
2022-10-12T14:05:42.333Z,17.87
2022-10-12T14:08:25.237Z,17.89
2022-10-12T14:10:55.099Z,17.86
2022-10-12T14:13:34.668Z,17.83
2022-10-12T14:16:05.012Z,17.83
2022-10-12T14:18:44.880Z,17.83
2022-10-12T14:21:26.789Z,17.72
2022-10-12T14:23:57.797Z,17.68
2022-10-12T14:26:30.173Z,17.63
2022-10-12T14:28:59.425Z,17.58
2022-10-12T14:31:52.894Z,17.53
2022-10-12T14:34:46.371Z,17.49
2022-10-12T14:37:16.078Z,17.50
2022-10-12T14:39:45.596Z,17.47
2022-10-12T14:42:28.262Z,17.46
2022-10-12T14:44:55.281Z,17.40
2022-10-12T14:47:43.020Z,17.38
2022-10-12T14:50:19.650Z,17.31
2022-10-12T14:52:49.950Z,17.30
2022-10-12T14:55:29.571Z,17.20
2022-10-12T14:57:57.884Z,17.14
2022-10-12T15:00:31.842Z,17.06
2022-10-12T15:03:00.028Z,17.02
2022-10-12T15:05:31.929Z,16.97
2022-10-12T15:08:00.590Z,16.86
2022-10-12T15:10:29.164Z,16.58
2022-10-12T15:12:56.607Z,16.71
2022-10-12T15:15:44.214Z,16.61
2022-10-12T15:18:11.680Z,16.57
2022-10-12T15:20:39.595Z,16.55
2022-10-12T15:23:06.997Z,16.38
2022-10-12T15:25:54.966Z,16.43
2022-10-12T15:28:23.300Z,16.36
2022-10-12T15:33:39.051Z,16.20
2022-10-12T15:36:07.039Z,16.12
2022-10-12T15:38:34.319Z,15.94
2022-10-12T15:41:01.683Z,15.86
2022-10-12T15:43:29.144Z,16.02
2022-10-12T15:45:56.605Z,15.92
2022-10-12T15:48:23.619Z,15.90
2022-10-12T15:50:50.725Z,15.54
2022-10-12T15:53:25.542Z,15.54
2022-10-12T15:55:56.051Z,15.55
2022-10-12T15:58:23.457Z,15.61
2022-10-12T16:00:50.603Z,15.53
2022-10-12T16:03:25.644Z,15.45
2022-10-12T16:05:53.883Z,15.38
2022-10-12T16:08:20.827Z,15.26
2022-10-12T16:10:48.961Z,15.27
2022-10-12T16:13:17.353Z,15.24
2022-10-12T16:15:44.657Z,15.19
2022-10-12T16:18:12.210Z,15.02
2022-10-12T16:20:41.358Z,15.09
2022-10-12T16:23:25.177Z,15.01
2022-10-12T16:25:53.095Z,14.95
2022-10-12T16:28:21.246Z,14.74
2022-10-12T16:30:49.649Z,14.75
2022-10-12T16:33:17.566Z,14.72
2022-10-12T16:35:45.040Z,14.63
2022-10-12T16:38:14.508Z,14.59
2022-10-12T16:40:42.547Z,14.31
2022-10-12T16:43:10.355Z,14.37
2022-10-12T16:45:38.175Z,14.24
2022-10-12T16:48:05.386Z,14.16
2022-10-12T16:50:32.373Z,14.10
2022-10-12T16:53:00.072Z,14.02
2022-10-12T16:55:27.042Z,13.95
2022-10-12T16:57:54.372Z,13.89
2022-10-12T17:00:21.784Z,13.87
2022-10-12T17:02:48.829Z,13.82
2022-10-12T17:05:15.902Z,13.80
2022-10-12T17:07:42.882Z,13.76
2022-10-12T17:10:10.432Z,13.68
2022-10-12T17:12:37.385Z,13.62
2022-10-12T17:15:05.736Z,13.57
2022-10-12T17:17:32.657Z,13.44
2022-10-12T17:19:59.615Z,13.40
2022-10-12T17:22:26.978Z,13.33
2022-10-12T17:24:53.891Z,13.30
2022-10-12T17:27:20.936Z,13.23
2022-10-12T17:29:47.993Z,13.13
2022-10-12T17:32:15.802Z,13.09
2022-10-12T17:34:44.822Z,13.02
2022-10-12T17:37:15.171Z,12.96
2022-10-12T17:39:46.219Z,12.87
2022-10-12T17:42:13.814Z,12.83
2022-10-12T17:44:40.948Z,12.71
2022-10-12T17:47:07.851Z,12.75
2022-10-12T17:49:35.240Z,12.74
2022-10-12T17:52:02.560Z,12.72
2022-10-12T17:54:29.612Z,12.63
2022-10-12T17:56:57.312Z,12.60
2022-10-12T17:59:25.161Z,12.49
2022-10-12T18:01:52.918Z,12.49
2022-10-12T18:04:20.356Z,12.32
2022-10-12T18:06:48.070Z,12.56
2022-10-12T18:09:15.656Z,12.54
2022-10-12T18:11:44.218Z,12.51
2022-10-12T18:14:13.191Z,12.42
2022-10-12T18:16:41.271Z,12.41
2022-10-12T18:19:11.588Z,12.33
2022-10-12T18:21:39.573Z,12.29
2022-10-12T18:24:16.108Z,12.19
2022-10-12T18:26:45.797Z,12.19
2022-10-12T18:29:16.174Z,12.16
2022-10-12T18:31:43.151Z,12.03
2022-10-12T18:34:10.537Z,12.07
2022-10-12T18:36:39.540Z,12.07
2022-10-12T18:39:06.540Z,12.05
2022-10-12T18:41:33.528Z,11.94
2022-10-12T18:44:02.450Z,11.97
2022-10-12T18:46:33.017Z,11.95
2022-10-12T18:49:04.961Z,11.93
2022-10-12T18:51:35.974Z,11.88
2022-10-12T18:54:04.285Z,11.81
2022-10-12T18:56:33.620Z,11.76
2022-10-12T18:59:02.338Z,11.71
2022-10-12T19:01:30.775Z,11.72
2022-10-12T19:04:00.636Z,11.69
2022-10-12T19:06:31.677Z,11.66
2022-10-12T19:09:01.350Z,11.62
2022-10-12T19:11:30.976Z,11.58
2022-10-12T19:14:08.020Z,11.47
2022-10-12T19:16:35.707Z,11.48
2022-10-12T19:19:07.254Z,11.44
2022-10-12T19:21:35.004Z,11.28
2022-10-12T19:24:04.345Z,11.35
2022-10-12T19:26:31.814Z,11.28
2022-10-12T19:28:58.832Z,11.23
2022-10-12T19:31:36.225Z,11.23
2022-10-12T19:34:08.127Z,11.22
2022-10-12T19:36:36.979Z,10.71
2022-10-12T19:39:12.051Z,11.16
2022-10-12T19:41:39.975Z,11.09
2022-10-12T19:44:07.094Z,11.03
2022-10-12T19:46:35.051Z,10.97
2022-10-12T19:49:01.987Z,10.94
2022-10-12T19:51:31.876Z,10.92
2022-10-12T19:54:04.847Z,10.88
2022-10-12T19:56:33.856Z,10.87
2022-10-12T19:59:00.843Z,10.84
2022-10-12T20:01:32.762Z,10.76
2022-10-12T20:03:59.911Z,10.44
2022-10-12T20:06:29.993Z,10.62
2022-10-12T20:09:02.272Z,10.29
2022-10-12T20:11:29.945Z,10.35
2022-10-12T20:13:57.958Z,10.35
2022-10-12T20:16:25.866Z,10.46
2022-10-12T20:18:52.938Z,10.44
2022-10-12T20:21:23.428Z,10.43
2022-10-12T20:23:51.449Z,10.43
2022-10-12T20:26:25.239Z,10.41
2022-10-12T20:28:54.357Z,10.40
2022-10-12T20:31:23.880Z,10.34
2022-10-12T20:33:53.003Z,10.32
2022-10-12T20:36:28.916Z,10.30
2022-10-12T20:38:58.822Z,10.28
2022-10-12T20:41:27.771Z,10.29
2022-10-12T20:44:00.322Z,10.28
2022-10-12T20:46:29.252Z,10.27
2022-10-12T20:48:59.705Z,10.29
2022-10-12T20:51:32.749Z,10.17
2022-10-12T20:54:01.185Z,10.11
2022-10-12T20:56:30.806Z,9.94
2022-10-12T20:58:58.900Z,9.94
2022-10-12T21:01:26.246Z,9.98
2022-10-12T21:03:54.482Z,9.83
2022-10-12T21:06:23.318Z,9.92
2022-10-12T21:08:53.117Z,9.90
2022-10-12T21:11:21.243Z,9.90
2022-10-12T21:13:48.760Z,9.82
2022-10-12T21:16:16.858Z,9.78
2022-10-12T21:18:43.920Z,9.84
2022-10-12T21:21:19.477Z,9.82
2022-10-12T21:23:55.921Z,9.73
2022-10-12T21:26:25.600Z,9.73
2022-10-12T21:28:53.037Z,9.68
2022-10-12T21:31:21.252Z,9.58
2022-10-12T21:33:48.308Z,9.61
2022-10-12T21:36:23.087Z,9.64
2022-10-12T21:38:50.671Z,9.58
2022-10-12T21:41:24.195Z,9.56
2022-10-12T21:43:52.444Z,9.57
2022-10-12T21:46:27.000Z,9.54
2022-10-12T21:48:54.591Z,9.48
2022-10-12T21:51:23.948Z,9.47
2022-10-12T21:53:52.285Z,9.42
2022-10-12T21:56:20.811Z,9.44
2022-10-12T21:58:49.341Z,9.41
2022-10-12T22:01:22.278Z,9.40
2022-10-12T22:03:57.646Z,9.24
2022-10-12T22:06:27.533Z,9.26
2022-10-12T22:09:00.755Z,9.04
2022-10-12T22:11:31.925Z,9.23
2022-10-12T22:14:05.312Z,9.24
2022-10-12T22:16:33.309Z,9.21
2022-10-12T22:19:03.798Z,9.15
2022-10-12T22:21:35.473Z,9.12
2022-10-12T22:24:02.703Z,9.05
2022-10-12T22:26:30.464Z,9.01
2022-10-12T22:29:01.546Z,8.94
2022-10-12T22:31:28.868Z,8.97
2022-10-12T22:33:56.409Z,8.92
2022-10-12T22:36:23.450Z,8.94
2022-10-12T22:38:50.559Z,8.72
2022-10-12T22:41:21.512Z,8.87
2022-10-12T22:43:52.349Z,8.83
2022-10-12T22:46:21.232Z,8.74
2022-10-12T22:48:49.150Z,8.88
2022-10-12T22:51:25.742Z,8.82
2022-10-12T22:53:52.755Z,8.82
2022-10-12T22:56:19.867Z,8.68
2022-10-12T22:58:48.886Z,8.83
2022-10-12T23:01:17.757Z,8.87
2022-10-12T23:03:45.905Z,8.90
2022-10-12T23:06:18.229Z,8.80
2022-10-12T23:08:46.322Z,8.88
2022-10-12T23:11:25.595Z,8.88
2022-10-12T23:13:54.388Z,8.93
2022-10-12T23:16:28.922Z,8.93
2022-10-12T23:19:01.954Z,8.78
2022-10-12T23:21:30.673Z,8.84
2022-10-12T23:24:00.183Z,8.85
2022-10-12T23:26:29.282Z,8.89
2022-10-12T23:28:56.772Z,8.73
2022-10-12T23:31:29.128Z,8.88
2022-10-12T23:34:04.254Z,8.82
2022-10-12T23:36:31.976Z,8.83
2022-10-12T23:39:04.521Z,8.85
2022-10-12T23:41:31.562Z,8.86
2022-10-12T23:43:59.046Z,8.71
2022-10-12T23:46:26.943Z,8.80
2022-10-12T23:48:56.545Z,8.42
2022-10-12T23:51:23.520Z,8.90
2022-10-12T23:53:50.908Z,8.92
2022-10-12T23:56:17.917Z,8.88
2022-10-12T23:58:44.867Z,8.91
